createdAt,value
2023-04-23T00:01:30.202Z,60.92
2023-04-23T00:03:33.417Z,60.80
2023-04-23T00:05:36.371Z,60.52
2023-04-23T00:07:37.895Z,60.64
2023-04-23T00:09:39.516Z,60.27
2023-04-23T00:11:40.812Z,60.01
2023-04-23T00:13:42.168Z,59.92
2023-04-23T00:15:43.499Z,60.15
2023-04-23T00:17:44.849Z,59.84
2023-04-23T00:19:46.290Z,60.01
2023-04-23T00:21:47.646Z,60.14
2023-04-23T00:23:49.255Z,60.01
2023-04-23T00:25:50.594Z,60.27
2023-04-23T00:27:51.931Z,59.67
2023-04-23T00:29:53.348Z,59.86
2023-04-23T00:31:54.734Z,60.16
2023-04-23T00:33:56.134Z,60.53
2023-04-23T00:35:57.605Z,60.49
2023-04-23T00:37:59.021Z,60.16
2023-04-23T00:40:00.368Z,60.27
2023-04-23T00:42:07.126Z,60.17
2023-04-23T00:44:08.982Z,60.40
2023-04-23T00:46:10.477Z,60.35
2023-04-23T00:48:11.947Z,60.34
2023-04-23T00:50:13.339Z,60.41
2023-04-23T00:52:14.666Z,60.10
2023-04-23T00:54:15.991Z,60.42
2023-04-23T00:56:17.801Z,60.51
2023-04-23T00:58:19.139Z,60.44
2023-04-23T01:00:20.744Z,60.68
2023-04-23T01:02:22.183Z,60.54
2023-04-23T01:04:23.733Z,60.66
2023-04-23T01:06:28.702Z,60.59
2023-04-23T01:08:30.078Z,60.62
2023-04-23T01:10:32.651Z,60.88
2023-04-23T01:12:34.012Z,60.73
2023-04-23T01:14:35.328Z,60.54
2023-04-23T01:16:38.460Z,60.82
2023-04-23T01:18:41.146Z,60.91
2023-04-23T01:20:43.752Z,60.65
2023-04-23T01:22:45.063Z,60.66
2023-04-23T01:24:46.381Z,60.59
2023-04-23T01:26:47.704Z,60.63
2023-04-23T01:28:49.003Z,61.13
2023-04-23T01:30:50.430Z,61.30
2023-04-23T01:32:51.807Z,61.21
2023-04-23T01:34:54.463Z,60.75
2023-04-23T01:36:55.882Z,61.33
2023-04-23T01:38:57.222Z,60.85
2023-04-23T01:40:58.516Z,60.97
2023-04-23T01:42:59.861Z,60.72
2023-04-23T01:45:01.158Z,60.90
2023-04-23T01:47:02.447Z,60.94
2023-04-23T01:49:03.784Z,60.80
2023-04-23T01:51:05.094Z,60.96
2023-04-23T01:53:06.428Z,61.03
2023-04-23T01:55:07.954Z,60.95
2023-04-23T01:57:09.249Z,61.11
2023-04-23T01:59:10.593Z,61.19
2023-04-23T02:01:11.913Z,60.78
2023-04-23T02:03:13.767Z,60.94
2023-04-23T02:05:15.470Z,60.55
2023-04-23T02:07:16.889Z,60.49
2023-04-23T02:09:18.253Z,60.26
2023-04-23T02:11:19.564Z,60.53
2023-04-23T02:13:20.902Z,60.32
2023-04-23T02:15:22.307Z,60.37
2023-04-23T02:17:23.844Z,59.69
2023-04-23T02:19:25.172Z,59.59
2023-04-23T02:21:27.502Z,59.36
2023-04-23T02:23:29.003Z,59.71
2023-04-23T02:25:32.061Z,59.56
2023-04-23T02:27:33.485Z,59.83
2023-04-23T02:29:34.819Z,60.26
2023-04-23T02:31:36.183Z,59.90
2023-04-23T02:33:37.487Z,60.17
2023-04-23T02:35:38.781Z,60.03
2023-04-23T02:37:40.430Z,60.48
2023-04-23T02:39:41.855Z,60.62
2023-04-23T02:41:43.161Z,60.38
2023-04-23T02:43:44.454Z,60.02
2023-04-23T02:45:45.797Z,60.37
2023-04-23T02:47:47.198Z,60.37
2023-04-23T02:49:48.507Z,60.53
2023-04-23T02:51:49.798Z,60.81
2023-04-23T02:53:51.533Z,61.27
2023-04-23T02:55:52.829Z,61.02
2023-04-23T02:57:54.148Z,60.64
2023-04-23T02:59:55.547Z,61.10
2023-04-23T03:01:56.875Z,60.77
2023-04-23T03:03:58.391Z,61.05
2023-04-23T03:05:59.806Z,61.04
2023-04-23T03:08:01.101Z,61.16
2023-04-23T03:10:02.433Z,61.13
2023-04-23T03:12:03.738Z,61.00
2023-04-23T03:14:05.154Z,60.88
2023-04-23T03:16:06.459Z,61.41
2023-04-23T03:18:08.477Z,61.46
2023-04-23T03:20:11.627Z,61.18
2023-04-23T03:22:12.979Z,61.95
2023-04-23T03:24:15.120Z,61.57
2023-04-23T03:26:16.460Z,61.23
2023-04-23T03:28:17.755Z,61.10
2023-04-23T03:30:19.055Z,61.40
2023-04-23T03:32:20.372Z,61.57
2023-04-23T03:34:21.687Z,61.60
2023-04-23T03:36:22.974Z,61.38
2023-04-23T03:38:24.390Z,61.17
2023-04-23T03:40:25.908Z,61.27
2023-04-23T03:42:27.261Z,61.10
2023-04-23T03:44:29.440Z,61.30
2023-04-23T03:46:30.881Z,61.03
2023-04-23T03:48:32.269Z,61.03
2023-04-23T03:50:38.808Z,61.46
2023-04-23T03:52:40.150Z,61.37
2023-04-23T03:54:41.602Z,61.38
2023-04-23T03:56:43.098Z,61.54
2023-04-23T03:58:44.418Z,61.16
2023-04-23T04:00:45.715Z,61.08
2023-04-23T04:02:47.150Z,61.24
2023-04-23T04:04:51.753Z,61.42
2023-04-23T04:06:53.261Z,61.65
2023-04-23T04:08:54.556Z,61.30
2023-04-23T04:10:56.066Z,61.39
2023-04-23T04:12:57.416Z,61.17
2023-04-23T04:14:58.782Z,61.66
2023-04-23T04:17:00.226Z,61.56
2023-04-23T04:19:01.588Z,61.41
2023-04-23T04:21:02.891Z,61.02
2023-04-23T04:23:04.211Z,61.02
2023-04-23T04:25:05.511Z,61.04
2023-04-23T04:27:06.846Z,60.96
2023-04-23T04:29:09.355Z,61.17
2023-04-23T04:31:10.749Z,61.33
2023-04-23T04:33:12.082Z,61.25
2023-04-23T04:35:14.457Z,61.08
2023-04-23T04:37:15.889Z,60.95
2023-04-23T04:39:18.001Z,61.50
2023-04-23T04:41:22.198Z,61.61
2023-04-23T04:43:23.525Z,61.48
2023-04-23T04:45:25.773Z,61.48
2023-04-23T04:47:27.257Z,61.21
2023-04-23T04:49:28.632Z,61.41
2023-04-23T04:51:29.959Z,61.57
2023-04-23T04:53:31.307Z,61.33
2023-04-23T04:55:32.646Z,61.75
2023-04-23T04:57:33.959Z,61.46
2023-04-23T04:59:35.260Z,61.25
2023-04-23T05:01:37.513Z,61.56
2023-04-23T05:03:39.416Z,61.23
2023-04-23T05:05:40.925Z,61.19
2023-04-23T05:07:42.241Z,61.42
2023-04-23T05:09:45.103Z,61.20
2023-04-23T05:11:46.661Z,61.27
2023-04-23T05:13:47.951Z,61.39
2023-04-23T05:15:49.297Z,61.27
2023-04-23T05:17:53.586Z,61.43
2023-04-23T05:19:55.003Z,61.40
2023-04-23T05:21:56.497Z,61.34
2023-04-23T05:23:57.850Z,61.71
2023-04-23T05:25:59.163Z,61.33
2023-04-23T05:28:00.478Z,61.31
2023-04-23T05:30:02.181Z,61.49
2023-04-23T05:32:06.413Z,61.16
2023-04-23T05:34:07.722Z,61.22
2023-04-23T05:36:09.085Z,61.46
2023-04-23T05:38:10.482Z,61.47
2023-04-23T05:40:11.783Z,61.63
2023-04-23T05:42:13.267Z,61.68
2023-04-23T05:44:14.624Z,61.82
2023-04-23T05:46:16.040Z,61.60
2023-04-23T05:48:17.405Z,61.61
2023-04-23T05:50:18.731Z,62.04
2023-04-23T05:52:20.131Z,61.84
2023-04-23T05:54:21.443Z,62.02
2023-04-23T05:56:22.755Z,61.80
2023-04-23T05:58:24.411Z,61.89
2023-04-23T06:00:25.919Z,61.98
2023-04-23T06:02:28.732Z,62.05
2023-04-23T06:04:30.455Z,61.82
2023-04-23T06:06:32.207Z,62.08
2023-04-23T06:08:33.516Z,62.00
2023-04-23T06:10:34.861Z,62.01
2023-04-23T06:12:39.147Z,62.11
2023-04-23T06:14:40.788Z,61.92
2023-04-23T06:16:42.304Z,62.02
2023-04-23T06:18:46.280Z,61.77
2023-04-23T06:20:48.828Z,61.85
2023-04-23T06:22:50.168Z,61.93
2023-04-23T06:24:51.670Z,61.64
2023-04-23T06:26:52.971Z,61.99
2023-04-23T06:28:54.259Z,62.23
2023-04-23T06:30:58.233Z,61.56
2023-04-23T06:32:59.623Z,61.85
2023-04-23T06:35:02.254Z,61.58
2023-04-23T06:37:03.938Z,61.95
2023-04-23T06:39:05.262Z,61.57
2023-04-23T06:41:06.550Z,61.45
2023-04-23T06:43:08.101Z,61.88
2023-04-23T06:45:09.510Z,62.02
2023-04-23T06:47:11.420Z,61.78
2023-04-23T06:49:12.818Z,61.92
2023-04-23T06:51:14.111Z,62.44
2023-04-23T06:53:15.671Z,62.34
2023-04-23T06:55:16.999Z,61.86
2023-04-23T06:57:18.338Z,62.33
2023-04-23T06:59:19.811Z,62.39
2023-04-23T07:01:21.206Z,62.31
2023-04-23T07:03:25.608Z,62.24
2023-04-23T07:05:27.028Z,62.13
2023-04-23T07:07:28.331Z,62.02
2023-04-23T07:09:32.313Z,62.17
2023-04-23T07:11:35.138Z,61.81
2023-04-23T07:13:36.515Z,62.09
2023-04-23T07:15:38.138Z,62.03
2023-04-23T07:17:39.523Z,61.91
2023-04-23T07:19:40.962Z,61.68
2023-04-23T07:21:42.264Z,61.62
2023-04-23T07:23:43.579Z,61.74
2023-04-23T07:25:44.877Z,62.00
2023-04-23T07:27:49.363Z,61.82
2023-04-23T07:29:50.703Z,61.96
2023-04-23T07:31:52.185Z,61.63
2023-04-23T07:33:53.570Z,61.93
2023-04-23T07:35:54.897Z,61.60
2023-04-23T07:37:57.992Z,61.76
2023-04-23T07:40:00.848Z,61.67
2023-04-23T07:42:05.657Z,61.52
2023-04-23T07:44:07.074Z,61.33
2023-04-23T07:46:08.384Z,60.99
2023-04-23T07:48:09.823Z,61.11
2023-04-23T07:50:11.164Z,61.00
2023-04-23T07:52:12.591Z,61.10
2023-04-23T07:54:13.912Z,56.93
2023-04-23T07:56:15.628Z,56.82
2023-04-23T07:58:17.298Z,56.97
2023-04-23T08:00:18.720Z,55.88
2023-04-23T08:02:23.823Z,55.71
2023-04-23T08:04:25.731Z,53.42
2023-04-23T08:06:27.224Z,53.45
2023-04-23T08:08:28.564Z,52.75
2023-04-23T08:10:29.860Z,53.38
2023-04-23T08:12:33.820Z,51.71
2023-04-23T08:14:35.157Z,52.54
2023-04-23T08:16:38.747Z,52.06
2023-04-23T08:18:40.525Z,52.03
2023-04-23T08:20:41.813Z,49.97
2023-04-23T08:22:43.111Z,51.59
2023-04-23T08:24:44.467Z,51.90
2023-04-23T08:26:46.627Z,51.82
2023-04-23T08:28:47.924Z,52.63
2023-04-23T08:30:49.247Z,52.31
2023-04-23T08:32:51.328Z,52.68
2023-04-23T08:34:52.745Z,53.43
2023-04-23T08:36:54.074Z,53.96
2023-04-23T08:39:01.586Z,53.97
2023-04-23T08:41:02.889Z,53.59
2023-04-23T08:43:04.235Z,54.82
2023-04-23T08:45:05.574Z,55.26
2023-04-23T08:47:07.120Z,55.56
2023-04-23T08:49:11.525Z,55.69
2023-04-23T08:51:12.812Z,55.77
2023-04-23T08:53:14.127Z,56.04
2023-04-23T08:55:15.992Z,56.29
2023-04-23T08:57:17.701Z,56.07
2023-04-23T08:59:20.146Z,56.25
2023-04-23T09:01:21.540Z,56.43
2023-04-23T09:03:23.210Z,56.05
2023-04-23T09:05:24.571Z,56.43
2023-04-23T09:07:26.803Z,56.27
2023-04-23T09:09:28.102Z,56.07
2023-04-23T09:11:29.653Z,56.30
2023-04-23T09:13:32.023Z,56.49
2023-04-23T09:15:35.636Z,56.25
2023-04-23T09:17:39.419Z,56.51
2023-04-23T09:19:42.253Z,56.74
2023-04-23T09:21:43.787Z,56.46
2023-04-23T09:23:45.109Z,56.67
2023-04-23T09:25:46.458Z,56.68
2023-04-23T09:27:47.795Z,56.66
2023-04-23T09:29:53.096Z,56.58
2023-04-23T09:31:54.473Z,56.53
2023-04-23T09:33:55.952Z,56.66
2023-04-23T09:35:57.260Z,57.31
2023-04-23T09:37:58.644Z,57.04
2023-04-23T09:39:59.943Z,57.05
2023-04-23T09:42:02.185Z,56.79
2023-04-23T09:44:03.532Z,57.12
2023-04-23T09:46:05.175Z,57.04
2023-04-23T09:48:06.951Z,57.32
2023-04-23T09:50:10.542Z,57.37
2023-04-23T09:52:11.876Z,57.10
2023-04-23T09:54:13.409Z,57.04
2023-04-23T09:56:14.703Z,57.29
2023-04-23T09:58:16.074Z,57.15
2023-04-23T10:00:17.642Z,57.23
2023-04-23T10:02:19.887Z,57.13
2023-04-23T10:04:21.807Z,57.32
2023-04-23T10:06:40.816Z,57.33
2023-04-23T10:08:45.253Z,57.44
2023-04-23T10:11:00.046Z,56.84
2023-04-23T10:13:07.626Z,57.39
2023-04-23T10:15:08.962Z,57.54
2023-04-23T10:17:10.576Z,57.00
2023-04-23T10:19:14.635Z,56.83
2023-04-23T10:21:16.317Z,56.93
2023-04-23T10:23:17.672Z,57.17
2023-04-23T10:25:19.517Z,57.46
2023-04-23T10:29:25.370Z,57.78
2023-04-23T10:31:26.684Z,57.86
2023-04-23T10:33:31.834Z,57.78
2023-04-23T10:35:35.075Z,58.02
2023-04-23T10:37:36.404Z,57.90
2023-04-23T10:39:38.141Z,58.00
2023-04-23T10:41:39.468Z,57.95
2023-04-23T10:43:43.548Z,58.08
2023-04-23T10:45:44.903Z,58.42
2023-04-23T10:47:46.383Z,58.07
2023-04-23T10:49:47.814Z,58.07
2023-04-23T10:53:54.038Z,58.09
2023-04-23T10:55:55.339Z,58.24
2023-04-23T10:57:59.960Z,58.13
2023-04-23T11:00:04.571Z,58.38
2023-04-23T11:02:06.001Z,58.42
2023-04-23T11:04:07.791Z,58.23
2023-04-23T11:06:09.237Z,58.35
2023-04-23T11:08:19.467Z,58.51
2023-04-23T11:10:21.539Z,58.39
2023-04-23T11:12:22.844Z,58.44
2023-04-23T11:14:24.177Z,58.70
2023-04-23T11:16:25.749Z,58.66
2023-04-23T11:18:27.135Z,58.93
2023-04-23T11:20:28.573Z,58.77
2023-04-23T11:22:29.880Z,58.37
2023-04-23T11:24:31.923Z,58.75
2023-04-23T11:26:33.216Z,58.63
2023-04-23T11:28:34.560Z,58.65
2023-04-23T11:30:35.954Z,58.61
2023-04-23T11:32:37.343Z,58.48
2023-04-23T11:34:38.670Z,58.51
2023-04-23T11:36:42.623Z,58.88
2023-04-23T11:38:43.938Z,59.01
2023-04-23T11:40:45.275Z,58.61
2023-04-23T11:42:47.379Z,58.73
2023-04-23T11:44:48.791Z,59.16
2023-04-23T11:46:50.201Z,59.25
2023-04-23T11:48:51.571Z,59.19
2023-04-23T11:50:52.868Z,59.23
2023-04-23T11:52:54.185Z,59.32
2023-04-23T11:54:55.504Z,59.49
2023-04-23T11:56:58.046Z,59.58
2023-04-23T11:58:59.966Z,59.68
2023-04-23T12:01:02.338Z,59.69
2023-04-23T12:03:03.809Z,59.86
2023-04-23T12:05:05.997Z,59.97
2023-04-23T12:07:16.033Z,60.29
2023-04-23T12:09:30.019Z,59.79
2023-04-23T12:11:34.320Z,60.26
2023-04-23T12:13:35.638Z,60.95
2023-04-23T12:15:37.007Z,60.51
2023-04-23T12:17:38.554Z,60.68
2023-04-23T12:19:43.772Z,60.53
2023-04-23T12:21:45.224Z,60.16
2023-04-23T12:23:46.553Z,60.75
2023-04-23T12:25:47.851Z,60.81
2023-04-23T12:27:51.999Z,60.56
2023-04-23T12:29:53.304Z,60.52
2023-04-23T12:31:54.644Z,60.60
2023-04-23T12:33:55.934Z,60.45
2023-04-23T12:35:57.606Z,60.53
2023-04-23T12:37:58.895Z,60.09
2023-04-23T12:40:00.297Z,60.25
2023-04-23T12:42:03.029Z,60.54
2023-04-23T12:44:04.478Z,60.52
2023-04-23T12:46:06.046Z,60.71
2023-04-23T12:48:07.420Z,62.07
2023-04-23T12:50:08.940Z,61.09
2023-04-23T12:52:12.876Z,61.06
2023-04-23T12:54:15.060Z,61.68
2023-04-23T12:56:16.410Z,61.51
2023-04-23T12:58:17.737Z,61.69
2023-04-23T13:00:19.041Z,61.74
2023-04-23T13:02:20.665Z,61.95
2023-04-23T13:04:22.050Z,61.55
2023-04-23T13:06:23.369Z,61.90
2023-04-23T13:08:24.715Z,61.93
2023-04-23T13:10:26.254Z,62.09
2023-04-23T13:12:27.555Z,62.37
2023-04-23T13:14:29.202Z,62.38
2023-04-23T13:16:30.561Z,62.60
2023-04-23T13:18:31.905Z,62.80
2023-04-23T13:20:33.211Z,63.04
2023-04-23T13:22:34.589Z,63.09
2023-04-23T13:24:36.125Z,62.45
2023-04-23T13:26:37.423Z,62.76
2023-04-23T13:28:38.763Z,62.74
2023-04-23T13:30:40.151Z,62.76
2023-04-23T13:32:41.540Z,63.39
2023-04-23T13:34:42.928Z,62.69
2023-04-23T13:36:44.234Z,62.58
2023-04-23T13:38:45.660Z,62.47
2023-04-23T13:40:46.974Z,62.77
2023-04-23T13:42:50.308Z,62.89
2023-04-23T13:44:51.708Z,62.91
2023-04-23T13:46:53.243Z,62.69
2023-04-23T13:48:54.559Z,62.41
2023-04-23T13:50:56.020Z,62.48
2023-04-23T13:52:57.351Z,62.55
2023-04-23T13:55:00.216Z,62.68
2023-04-23T13:57:02.208Z,62.65
2023-04-23T14:01:13.309Z,63.07
2023-04-23T14:03:14.704Z,63.31
2023-04-23T14:05:16.118Z,59.43
2023-04-23T14:07:20.495Z,59.45
2023-04-23T14:09:25.208Z,58.47
2023-04-23T14:11:26.568Z,58.84
2023-04-23T14:13:27.926Z,59.04
2023-04-23T14:15:29.227Z,58.98
2023-04-23T14:17:30.529Z,58.21
2023-04-23T14:19:34.628Z,57.83
2023-04-23T14:21:36.267Z,56.63
2023-04-23T14:23:40.547Z,57.58
2023-04-23T14:25:41.877Z,57.03
2023-04-23T14:27:43.163Z,58.47
2023-04-23T14:29:47.657Z,58.37
2023-04-23T14:31:48.954Z,58.43
2023-04-23T14:33:53.277Z,59.07
2023-04-23T14:35:54.638Z,58.93
2023-04-23T14:37:56.068Z,59.14
2023-04-23T14:39:57.357Z,58.54
2023-04-23T14:41:58.699Z,59.12
2023-04-23T14:44:00.056Z,58.94
2023-04-23T14:46:01.814Z,59.41
2023-04-23T14:48:05.809Z,58.93
2023-04-23T14:50:07.161Z,58.89
2023-04-23T14:52:08.518Z,58.56
2023-04-23T14:54:09.820Z,57.72
2023-04-23T14:56:11.375Z,57.91
2023-04-23T14:58:12.693Z,57.49
2023-04-23T15:00:15.323Z,58.19
2023-04-23T15:02:16.649Z,58.08
2023-04-23T15:04:21.266Z,57.37
2023-04-23T15:06:22.915Z,57.67
2023-04-23T15:08:24.372Z,57.66
2023-04-23T15:10:25.686Z,57.06
2023-04-23T15:12:27.091Z,57.41
2023-04-23T15:14:28.393Z,58.35
2023-04-23T15:16:47.552Z,58.61
2023-04-23T15:18:49.991Z,59.20
2023-04-23T15:20:54.035Z,58.81
2023-04-23T15:22:55.420Z,58.05
2023-04-23T15:24:56.719Z,57.86
2023-04-23T15:26:59.277Z,57.58
2023-04-23T15:29:00.754Z,58.21
2023-04-23T15:31:04.832Z,57.92
2023-04-23T15:33:06.143Z,57.67
2023-04-23T15:35:07.478Z,57.29
2023-04-23T15:37:09.014Z,59.13
2023-04-23T15:39:10.869Z,59.08
2023-04-23T15:41:14.987Z,59.66
2023-04-23T15:43:16.343Z,60.29
2023-04-23T15:45:18.141Z,60.66
2023-04-23T15:47:21.582Z,60.45
2023-04-23T15:49:23.427Z,60.80
2023-04-23T15:51:24.726Z,59.71
2023-04-23T15:53:26.195Z,59.47
2023-04-23T15:55:27.763Z,59.40
2023-04-23T15:57:29.116Z,59.41
2023-04-23T15:59:33.153Z,58.29
2023-04-23T16:01:34.635Z,59.75
2023-04-23T16:03:36.070Z,59.09
2023-04-23T16:05:37.583Z,59.91
2023-04-23T16:07:38.883Z,59.79
2023-04-23T16:09:40.445Z,60.18
2023-04-23T16:11:41.994Z,59.80
2023-04-23T16:13:43.329Z,60.07
2023-04-23T16:15:44.683Z,59.93
2023-04-23T16:17:49.224Z,60.30
2023-04-23T16:19:50.806Z,60.16
2023-04-23T16:21:52.148Z,60.23
2023-04-23T16:23:53.857Z,60.39
2023-04-23T16:25:56.763Z,60.48
2023-04-23T16:27:58.788Z,60.70
2023-04-23T16:30:00.151Z,60.30
2023-04-23T16:32:05.316Z,60.40
2023-04-23T16:34:06.611Z,60.39
2023-04-23T16:36:13.090Z,60.66
2023-04-23T16:38:17.127Z,60.63
2023-04-23T16:40:19.279Z,60.64
2023-04-23T16:42:21.898Z,60.58
2023-04-23T16:44:23.235Z,60.61
2023-04-23T16:46:30.977Z,60.56
2023-04-23T16:48:32.613Z,60.38
2023-04-23T16:50:33.912Z,60.52
2023-04-23T16:52:35.324Z,60.51
2023-04-23T16:54:36.781Z,60.58
2023-04-23T16:56:38.252Z,60.49
2023-04-23T16:58:39.589Z,60.47
2023-04-23T17:00:41.102Z,60.66
2023-04-23T17:02:42.868Z,60.87
2023-04-23T17:04:44.493Z,60.42
2023-04-23T17:06:46.048Z,60.66
2023-04-23T17:08:47.339Z,60.73
2023-04-23T17:10:48.668Z,60.84
2023-04-23T17:12:56.727Z,60.60
2023-04-23T17:14:58.021Z,60.71
2023-04-23T17:16:59.405Z,60.88
2023-04-23T17:19:02.284Z,60.60
2023-04-23T17:21:03.609Z,60.38
2023-04-23T17:23:05.012Z,60.43
2023-04-23T17:25:06.539Z,59.68
2023-04-23T17:27:10.761Z,58.77
2023-04-23T17:29:14.297Z,57.59
2023-04-23T17:31:16.329Z,57.56
2023-04-23T17:33:18.025Z,57.97
2023-04-23T17:35:19.351Z,57.68
2023-04-23T17:37:21.689Z,58.35
2023-04-23T17:39:23.793Z,58.69
2023-04-23T17:41:25.265Z,58.64
2023-04-23T17:43:31.822Z,58.43
2023-04-23T17:45:36.223Z,57.94
2023-04-23T17:47:37.696Z,57.93
2023-04-23T17:49:39.064Z,58.52
2023-04-23T17:51:49.664Z,58.91
2023-04-23T17:53:53.830Z,58.92
2023-04-23T17:55:59.548Z,59.83
2023-04-23T17:58:08.179Z,59.66
2023-04-23T18:00:13.668Z,59.27
2023-04-23T18:02:15.052Z,59.57
2023-04-23T18:04:17.744Z,60.12
2023-04-23T18:06:19.542Z,59.68
2023-04-23T18:08:21.459Z,58.92
2023-04-23T18:10:23.331Z,58.84
2023-04-23T18:12:25.943Z,58.69
2023-04-23T18:14:27.246Z,59.25
2023-04-23T18:16:28.661Z,59.13
2023-04-23T18:18:32.716Z,59.98
2023-04-23T18:20:38.189Z,59.98
2023-04-23T18:22:41.125Z,59.81
2023-04-23T18:24:42.528Z,59.24
2023-04-23T18:26:43.879Z,58.23
2023-04-23T18:28:45.228Z,57.68
2023-04-23T18:30:46.672Z,57.15
2023-04-23T18:32:48.265Z,57.25
2023-04-23T18:34:49.709Z,57.36
2023-04-23T18:36:53.790Z,57.75
2023-04-23T18:38:55.248Z,58.35
2023-04-23T18:40:59.123Z,57.63
2023-04-23T18:43:00.457Z,57.72
2023-04-23T18:45:06.925Z,58.22
2023-04-23T18:47:08.233Z,58.37
2023-04-23T18:49:09.605Z,58.97
2023-04-23T18:51:10.910Z,58.34
2023-04-23T18:53:12.239Z,58.23
2023-04-23T18:55:13.641Z,58.27
2023-04-23T18:57:15.005Z,58.67
2023-04-23T18:59:16.459Z,58.50
2023-04-23T19:03:27.283Z,58.65
2023-04-23T19:05:28.936Z,57.52
2023-04-23T19:07:33.260Z,57.69
2023-04-23T19:09:34.575Z,57.75
2023-04-23T19:11:38.747Z,58.79
2023-04-23T19:13:43.108Z,58.63
2023-04-23T19:15:44.446Z,60.42
2023-04-23T19:17:46.021Z,58.27
2023-04-23T19:19:50.308Z,57.24
2023-04-23T19:21:51.696Z,58.40
2023-04-23T19:23:54.125Z,58.55
2023-04-23T19:25:56.431Z,58.74
2023-04-23T19:27:57.812Z,58.92
2023-04-23T19:30:00.962Z,58.88
2023-04-23T19:32:02.297Z,58.56
2023-04-23T19:34:03.770Z,58.78
2023-04-23T19:36:05.129Z,59.14
2023-04-23T19:38:06.534Z,59.11
2023-04-23T19:40:07.857Z,59.27
2023-04-23T19:42:10.735Z,59.43
2023-04-23T19:44:12.107Z,59.11
2023-04-23T19:46:13.398Z,58.41
2023-04-23T19:48:14.843Z,58.72
2023-04-23T19:50:16.609Z,58.67
2023-04-23T19:52:17.957Z,59.16
2023-04-23T19:54:19.288Z,59.49
2023-04-23T19:56:22.890Z,60.10
2023-04-23T19:58:24.259Z,60.34
2023-04-23T20:00:25.789Z,59.93
2023-04-23T20:02:27.112Z,60.12
2023-04-23T20:04:28.645Z,60.41
2023-04-23T20:06:33.109Z,60.40
2023-04-23T20:08:42.446Z,60.68
2023-04-23T20:10:44.465Z,60.14
2023-04-23T20:12:45.808Z,59.71
2023-04-23T20:14:47.320Z,59.01
2023-04-23T20:16:48.693Z,58.52
2023-04-23T20:18:50.076Z,59.06
2023-04-23T20:20:52.996Z,58.42
2023-04-23T20:22:54.338Z,58.05
2023-04-23T20:24:55.670Z,57.42
2023-04-23T20:27:01.284Z,57.93
2023-04-23T20:29:02.600Z,59.00
2023-04-23T20:31:04.208Z,58.91
2023-04-23T20:33:08.637Z,59.72
2023-04-23T20:35:10.095Z,58.74
2023-04-23T20:37:12.380Z,59.42
2023-04-23T20:39:13.698Z,59.16
2023-04-23T20:41:15.351Z,59.46
2023-04-23T20:43:17.470Z,59.03
2023-04-23T20:45:18.808Z,58.89
2023-04-23T20:47:20.124Z,58.12
2023-04-23T20:49:22.354Z,58.23
2023-04-23T20:51:23.678Z,58.46
2023-04-23T20:53:25.068Z,58.57
2023-04-23T20:55:26.399Z,58.88
2023-04-23T20:57:27.690Z,58.93
2023-04-23T20:59:29.028Z,58.87
2023-04-23T21:01:30.477Z,58.71
2023-04-23T21:03:33.025Z,58.58
2023-04-23T21:05:34.479Z,58.52
2023-04-23T21:07:36.804Z,58.74
2023-04-23T21:09:38.117Z,58.84
2023-04-23T21:11:39.419Z,59.22
2023-04-23T21:13:40.768Z,58.93
2023-04-23T21:15:42.253Z,59.51
2023-04-23T21:17:43.676Z,59.15
2023-04-23T21:19:45.093Z,58.21
2023-04-23T21:21:46.476Z,57.88
2023-04-23T21:23:47.856Z,58.76
2023-04-23T21:25:49.168Z,58.50
2023-04-23T21:27:50.688Z,58.45
2023-04-23T21:29:52.563Z,59.00
2023-04-23T21:31:54.002Z,58.84
2023-04-23T21:33:56.860Z,58.66
2023-04-23T21:35:58.376Z,59.05
2023-04-23T21:37:59.735Z,58.68
2023-04-23T21:40:01.187Z,58.75
2023-04-23T21:42:02.521Z,58.69
2023-04-23T21:44:03.871Z,58.72
2023-04-23T21:46:05.395Z,58.83
2023-04-23T21:48:06.721Z,58.04
2023-04-23T21:50:08.377Z,58.15
2023-04-23T21:52:09.723Z,58.11
2023-04-23T21:54:11.027Z,58.34
2023-04-23T21:56:12.332Z,58.55
2023-04-23T21:58:17.805Z,58.23
2023-04-23T22:00:19.542Z,58.37
2023-04-23T22:02:21.055Z,58.13
2023-04-23T22:04:22.725Z,58.62
2023-04-23T22:06:24.238Z,58.49
2023-04-23T22:08:25.583Z,59.38
2023-04-23T22:10:27.123Z,59.75
2023-04-23T22:12:28.440Z,59.76
2023-04-23T22:14:29.759Z,59.54
2023-04-23T22:16:31.239Z,58.64
2023-04-23T22:18:32.615Z,58.79
2023-04-23T22:20:33.996Z,59.16
2023-04-23T22:22:35.306Z,58.83
2023-04-23T22:24:36.624Z,59.33
2023-04-23T22:26:37.927Z,58.71
2023-04-23T22:28:39.233Z,59.23
2023-04-23T22:30:40.690Z,59.17
2023-04-23T22:32:41.996Z,58.60
2023-04-23T22:34:43.414Z,58.75
2023-04-23T22:36:44.765Z,58.68
2023-04-23T22:38:46.068Z,58.93
2023-04-23T22:40:47.358Z,58.81
2023-04-23T22:42:48.649Z,58.53
2023-04-23T22:44:49.979Z,58.89
2023-04-23T22:46:51.278Z,58.77
2023-04-23T22:48:53.517Z,58.79
2023-04-23T22:50:54.999Z,58.37
2023-04-23T22:52:56.320Z,58.82
2023-04-23T22:54:57.695Z,58.95
2023-04-23T22:56:59.017Z,58.81
2023-04-23T22:59:00.324Z,58.90
2023-04-23T23:01:02.225Z,59.10
2023-04-23T23:03:03.588Z,59.00
2023-04-23T23:05:04.991Z,59.08
2023-04-23T23:07:06.342Z,59.69
2023-04-23T23:09:08.133Z,59.40
2023-04-23T23:11:09.424Z,54.09
2023-04-23T23:13:10.852Z,54.48
2023-04-23T23:15:12.267Z,55.09
2023-04-23T23:17:13.576Z,55.90
2023-04-23T23:19:14.865Z,55.53
2023-04-23T23:21:16.459Z,55.82
2023-04-23T23:23:17.761Z,55.61
2023-04-23T23:25:19.085Z,55.73
2023-04-23T23:27:20.504Z,56.15
2023-04-23T23:29:21.851Z,56.54
2023-04-23T23:31:26.024Z,56.64
2023-04-23T23:33:27.586Z,57.20
2023-04-23T23:35:28.922Z,57.30
2023-04-23T23:37:30.538Z,57.41
2023-04-23T23:39:31.861Z,57.36
2023-04-23T23:41:33.161Z,57.45
2023-04-23T23:43:34.629Z,58.07
2023-04-23T23:45:36.042Z,57.72
2023-04-23T23:47:37.421Z,57.72
2023-04-23T23:49:38.779Z,57.87
2023-04-23T23:51:40.120Z,57.82
2023-04-23T23:53:41.440Z,58.28
2023-04-23T23:55:42.725Z,58.10
2023-04-23T23:57:44.026Z,58.77
2023-04-23T23:59:45.594Z,58.44
